Aviation Digital Data Service (ADDS)

Output produced by METARs form (1637 UTC 30 October 2020)
found at http://www.aviationweather.gov/metar/data/
 
KCLT 301552Z 35014KT 10SM FEW050 18/06 A3004 RMK AO2 SLP165 T01830061
KCLT 301605Z 3016/3118 35013G19KT P6SM FEW050 
     FM302100 36008KT P6SM SKC 
     FM311000 03006KT P6SM SCT040